Time;durP1;ratioP1;P1;durP2;ratioP2;P2;SDS_P1;SDS_P2;PMS_P1;PMS_P2;Temp;Humidity;BMP_temperature;BMP_pressure;BME280_temperature;BME280_humidity;BME280_pressure;Samples;Min_cycle;Max_cycle;Signal;HPM_P1;HPM_P2
2021/07/16 00:00:24;;;;;;;2.50;2.30;;;16.80;99.90;;;;;;5142684;27;20450;-80
2021/07/16 00:02:54;;;;;;;2.70;2.50;;;16.80;99.90;;;;;;5157213;27;20486;-81
2021/07/16 00:05:22;;;;;;;5.63;2.33;;;16.70;99.90;;;;;;5158176;27;20416;-82
2021/07/16 00:07:49;;;;;;;5.83;2.30;;;16.70;99.90;;;;;;5136037;27;20482;-80
2021/07/16 00:10:18;;;;;;;5.03;2.70;;;16.70;99.90;;;;;;5122858;28;20454;-82
2021/07/16 00:12:46;;;;;;;3.50;2.00;;;16.80;99.90;;;;;;5129337;27;20469;-81
2021/07/16 00:15:16;;;;;;;2.87;2.60;;;16.80;99.90;;;;;;5142905;27;20473;-81
2021/07/16 00:17:44;;;;;;;2.47;2.27;;;16.80;99.90;;;;;;5142085;27;20777;-81
2021/07/16 00:20:12;;;;;;;2.67;2.20;;;16.80;99.90;;;;;;5143648;27;20430;-81
2021/07/16 00:22:40;;;;;;;2.70;2.50;;;16.80;99.90;;;;;;5138955;27;20513;-80
2021/07/16 00:25:09;;;;;;;4.17;2.10;;;16.80;99.90;;;;;;5143027;27;20794;-81
2021/07/16 00:27:36;;;;;;;2.83;2.10;;;16.80;99.90;;;;;;5133708;27;20458;-81
2021/07/16 00:30:06;;;;;;;2.70;2.50;;;16.80;99.90;;;;;;5123707;28;20450;-82
2021/07/16 00:32:33;;;;;;;2.07;1.90;;;16.70;99.90;;;;;;5123755;28;20454;-81
2021/07/16 00:35:01;;;;;;;2.73;2.40;;;16.60;99.90;;;;;;5132806;28;20442;-81
2021/07/16 00:37:28;;;;;;;4.00;2.10;;;16.60;99.90;;;;;;5134843;27;20413;-81
2021/07/16 00:39:55;;;;;;;3.93;2.70;;;16.50;99.90;;;;;;5136015;28;20442;-82
2021/07/16 00:42:22;;;;;;;2.37;2.20;;;16.50;99.90;;;;;;5136136;28;20749;-81
2021/07/16 00:44:49;;;;;;;2.53;2.33;;;16.40;99.90;;;;;;5133632;28;20446;-80
2021/07/16 00:47:16;;;;;;;3.83;2.13;;;16.40;99.90;;;;;;5124374;28;20478;-80
2021/07/16 00:49:43;;;;;;;2.67;2.47;;;16.40;99.90;;;;;;5123209;28;20464;-82
2021/07/16 00:52:11;;;;;;;5.07;2.27;;;16.40;99.90;;;;;;5126016;27;20457;-82
2021/07/16 00:54:39;;;;;;;2.47;2.27;;;16.40;99.90;;;;;;5141454;27;20496;-81
2021/07/16 00:57:07;;;;;;;2.63;2.33;;;16.40;99.90;;;;;;5142533;27;20458;-81
2021/07/16 00:59:35;;;;;;;2.70;2.30;;;16.40;99.90;;;;;;5126197;28;20445;-81
2021/07/16 01:02:03;;;;;;;2.73;2.43;;;16.40;99.90;;;;;;5126139;28;20442;-81
2021/07/16 01:04:30;;;;;;;3.80;2.73;;;16.40;99.90;;;;;;5122964;28;20474;-80
2021/07/16 01:06:57;;;;;;;3.17;2.50;;;16.40;99.90;;;;;;5124159;27;20478;-80
2021/07/16 01:09:25;;;;;;;2.43;2.10;;;16.40;99.90;;;;;;5140346;27;20475;-81
2021/07/16 01:11:52;;;;;;;4.20;2.60;;;16.50;99.90;;;;;;5123456;28;20464;-80
2021/07/16 01:14:20;;;;;;;3.70;3.10;;;16.50;99.90;;;;;;5144257;27;20469;-81
2021/07/16 01:16:47;;;;;;;4.13;3.07;;;16.50;99.90;;;;;;5145263;27;20456;-82
2021/07/16 01:19:22;;;;;;;9.17;3.70;;;16.40;99.90;;;;;;5125042;27;20858;-82
2021/07/16 01:21:52;;;;;;;3.75;2.83;;;16.30;99.90;;;;;;5125255;27;20439;-83
2021/07/16 01:24:20;;;;;;;3.57;2.90;;;16.30;99.90;;;;;;5128094;28;20251;-81
2021/07/16 01:26:47;;;;;;;3.53;2.83;;;16.20;99.90;;;;;;5126405;28;20441;-81
2021/07/16 01:29:14;;;;;;;2.80;2.60;;;16.30;99.90;;;;;;5125666;28;20520;-80
2021/07/16 01:31:41;;;;;;;3.20;2.90;;;16.30;99.90;;;;;;5125449;28;20456;-79
2021/07/16 01:34:09;;;;;;;3.30;2.63;;;16.30;99.90;;;;;;5143194;27;20466;-81
2021/07/16 01:36:36;;;;;;;7.37;3.83;;;16.20;99.90;;;;;;5139897;27;20449;-80
2021/07/16 01:39:03;;;;;;;5.90;2.93;;;16.20;99.90;;;;;;5138731;27;20488;-80
2021/07/16 01:41:31;;;;;;;3.70;2.67;;;16.20;99.90;;;;;;5127010;28;20541;-79
2021/07/16 01:43:58;;;;;;;3.23;2.93;;;16.20;99.90;;;;;;5121648;28;20554;-80
2021/07/16 01:46:25;;;;;;;3.87;3.47;;;16.20;99.90;;;;;;5125703;28;20478;-81
2021/07/16 01:48:52;;;;;;;3.47;2.60;;;16.30;99.90;;;;;;5129816;28;20446;-80
2021/07/16 01:51:19;;;;;;;2.90;2.53;;;16.30;99.90;;;;;;5146321;28;20464;-79
2021/07/16 01:53:47;;;;;;;2.50;2.40;;;16.30;99.90;;;;;;5135489;27;20444;-81
2021/07/16 01:56:14;;;;;;;2.90;2.70;;;16.30;99.90;;;;;;5128343;28;20450;-81
2021/07/16 01:58:42;;;;;;;6.90;3.20;;;16.40;99.90;;;;;;5126952;28;20461;-80
2021/07/16 02:01:14;;;;;;;5.60;3.17;;;16.30;99.90;;;;;;5132657;28;20485;-80
2021/07/16 02:03:42;;;;;;;3.03;2.83;;;16.30;99.90;;;;;;5138550;27;20481;-80
2021/07/16 02:06:09;;;;;;;8.03;2.27;;;16.30;99.90;;;;;;5151982;28;20484;-80
2021/07/16 02:08:36;;;;;;;2.27;2.17;;;16.30;99.90;;;;;;5144968;28;20465;-82
2021/07/16 02:11:03;;;;;;;2.50;2.30;;;16.40;99.90;;;;;;5146821;28;20437;-80
2021/07/16 02:13:30;;;;;;;3.73;2.67;;;16.50;99.90;;;;;;5135121;27;21001;-80
2021/07/16 02:15:59;;;;;;;7.30;3.70;;;16.50;99.90;;;;;;5117318;28;20485;-79
2021/07/16 02:18:26;;;;;;;4.13;3.00;;;16.50;99.90;;;;;;5118008;28;20489;-80
2021/07/16 02:20:54;;;;;;;6.17;2.77;;;16.50;99.90;;;;;;5119321;28;20530;-80
2021/07/16 02:23:26;;;;;;;3.87;2.77;;;16.50;99.90;;;;;;5121131;28;20486;-80
2021/07/16 02:25:53;;;;;;;5.53;3.20;;;16.50;99.90;;;;;;5121368;28;20465;-79
2021/07/16 02:28:22;;;;;;;3.20;2.90;;;16.40;99.90;;;;;;5124649;28;20490;-80
2021/07/16 02:30:50;;;;;;;3.50;3.20;;;16.40;99.90;;;;;;5123773;28;20659;-80
2021/07/16 02:33:18;;;;;;;2.80;2.60;;;16.50;99.90;;;;;;5126106;28;20474;-79
2021/07/16 02:35:46;;;;;;;4.40;3.27;;;16.40;99.90;;;;;;5147451;27;20430;-79
2021/07/16 02:38:14;;;;;;;2.60;2.40;;;16.40;99.90;;;;;;5151933;27;20797;-79
2021/07/16 02:40:41;;;;;;;3.17;2.87;;;16.30;99.90;;;;;;5149969;27;20457;-80
2021/07/16 02:43:09;;;;;;;3.87;3.07;;;16.40;99.90;;;;;;5140795;27;20478;-80
2021/07/16 02:45:36;;;;;;;2.73;2.53;;;16.40;99.90;;;;;;5128284;28;20862;-80
2021/07/16 02:48:04;;;;;;;3.00;2.80;;;16.30;99.90;;;;;;5130620;28;20462;-81
2021/07/16 02:50:34;;;;;;;3.50;3.20;;;16.40;99.90;;;;;;5133119;28;20458;-79
2021/07/16 02:53:01;;;;;;;2.63;2.20;;;16.40;99.90;;;;;;5134130;28;20537;-80
2021/07/16 02:55:28;;;;;;;3.47;2.47;;;16.30;99.90;;;;;;5135855;27;20476;-80
2021/07/16 02:57:55;;;;;;;2.97;2.30;;;16.30;99.90;;;;;;5152230;27;20430;-80
2021/07/16 03:00:24;;;;;;;3.30;3.00;;;16.20;99.90;;;;;;5153666;27;20445;-80
2021/07/16 03:02:51;;;;;;;2.83;2.63;;;16.20;99.90;;;;;;5148042;27;20454;-79
2021/07/16 03:05:19;;;;;;;3.20;2.90;;;16.20;99.90;;;;;;5147684;27;20522;-81
2021/07/16 03:07:48;;;;;;;4.20;2.30;;;16.20;99.90;;;;;;5147206;27;20485;-78
2021/07/16 03:10:17;;;;;;;3.00;2.70;;;16.20;99.90;;;;;;5147398;27;20204;-80
2021/07/16 03:12:45;;;;;;;3.13;2.93;;;16.20;99.90;;;;;;5144552;27;20837;-80
2021/07/16 03:15:14;;;;;;;3.07;2.70;;;16.20;99.90;;;;;;5144230;27;20445;-79
2021/07/16 03:17:41;;;;;;;3.77;2.50;;;16.30;99.90;;;;;;5124435;28;20490;-80
2021/07/16 03:20:10;;;;;;;3.20;3.00;;;16.40;99.90;;;;;;5125654;28;20451;-79
2021/07/16 03:22:37;;;;;;;4.77;4.20;;;16.50;99.90;;;;;;5115406;28;20456;-80
2021/07/16 03:25:07;;;;;;;4.77;3.90;;;16.50;99.90;;;;;;5109521;28;20506;-80
2021/07/16 03:27:34;;;;;;;7.83;4.00;;;16.60;99.90;;;;;;5150745;27;20476;-80
2021/07/16 03:30:01;;;;;;;4.80;4.30;;;16.70;99.90;;;;;;5148632;27;20475;-80
2021/07/16 03:32:28;;;;;;;4.97;4.50;;;16.80;99.90;;;;;;5133213;27;20481;-81
2021/07/16 03:34:55;;;;;;;6.67;4.57;;;16.90;99.90;;;;;;5130299;28;20454;-80
2021/07/16 03:37:22;;;;;;;6.63;4.97;;;17.00;99.90;;;;;;5131537;28;20903;-79
2021/07/16 03:39:50;;;;;;;5.70;5.17;;;17.10;99.90;;;;;;5121569;28;20484;-80
2021/07/16 03:42:19;;;;;;;5.80;5.20;;;17.10;99.90;;;;;;5137254;27;20813;-80
2021/07/16 03:44:46;;;;;;;5.10;4.33;;;17.20;99.90;;;;;;5143961;27;20477;-80
2021/07/16 03:47:14;;;;;;;5.23;4.73;;;17.30;99.90;;;;;;5140922;27;20469;-81
2021/07/16 03:49:42;;;;;;;6.43;5.40;;;17.30;99.90;;;;;;5127351;28;20436;-79
2021/07/16 03:52:09;;;;;;;7.40;5.60;;;17.40;99.90;;;;;;5126360;27;20898;-79
2021/07/16 03:54:36;;;;;;;5.57;5.00;;;17.40;99.90;;;;;;5130663;28;20487;-81
2021/07/16 03:57:04;;;;;;;6.33;5.40;;;17.50;99.90;;;;;;5127781;27;20451;-80
2021/07/16 03:59:33;;;;;;;6.10;5.60;;;17.50;99.90;;;;;;5131029;28;20878;-80
2021/07/16 04:02:01;;;;;;;6.00;5.30;;;17.60;99.90;;;;;;5138032;27;20450;-79
2021/07/16 04:04:28;;;;;;;7.00;6.30;;;17.60;99.90;;;;;;5140905;27;20512;-79
2021/07/16 04:06:56;;;;;;;7.73;6.13;;;17.70;99.90;;;;;;5140835;27;20860;-78
2021/07/16 04:09:27;;;;;;;11.10;6.10;;;17.80;99.90;;;;;;5137511;27;20549;-79
2021/07/16 04:12:11;;;;;;;6.97;5.70;;;17.80;99.90;;;;;;5140208;27;20474;-80
2021/07/16 04:14:41;;;;;;;10.70;7.87;;;17.80;99.90;;;;;;5145673;27;20525;-80
2021/07/16 04:17:10;;;;;;;10.50;7.20;;;17.90;99.90;;;;;;5146651;27;20446;-79
2021/07/16 04:19:37;;;;;;;9.60;8.00;;;17.90;99.90;;;;;;5147266;27;20477;-81
2021/07/16 04:22:05;;;;;;;8.30;6.80;;;17.90;99.90;;;;;;5149514;27;20549;-79
2021/07/16 04:24:32;;;;;;;7.40;6.70;;;18.00;99.90;;;;;;5152523;27;20481;-81
2021/07/16 04:26:59;;;;;;;7.80;7.00;;;18.00;99.90;;;;;;5147656;27;20782;-80
2021/07/16 04:29:26;;;;;;;11.03;8.80;;;18.10;99.90;;;;;;5142865;27;20571;-81
2021/07/16 04:31:54;;;;;;;13.13;8.70;;;18.20;99.90;;;;;;5138223;27;20468;-80
2021/07/16 04:34:21;;;;;;;10.13;9.07;;;18.20;99.90;;;;;;5136913;27;20495;-78
2021/07/16 04:36:48;;;;;;;12.37;8.10;;;18.30;99.90;;;;;;5137401;27;20464;-79
2021/07/16 04:39:15;;;;;;;10.83;9.37;;;18.30;99.90;;;;;;5149214;27;20785;-79
2021/07/16 04:41:42;;;;;;;10.93;8.33;;;18.40;99.90;;;;;;5142508;27;20452;-78
2021/07/16 04:44:09;;;;;;;10.57;9.57;;;18.40;99.90;;;;;;5128716;28;20942;-79
2021/07/16 04:46:56;;;;;;;10.53;9.43;;;18.50;99.90;;;;;;5141331;27;20451;-80
2021/07/16 04:49:24;;;;;;;11.60;9.47;;;18.50;99.90;;;;;;5155350;27;20438;-81
2021/07/16 04:51:51;;;;;;;12.10;9.90;;;18.60;99.90;;;;;;5154770;27;20449;-80
2021/07/16 04:54:19;;;;;;;14.17;11.07;;;18.70;99.90;;;;;;5154596;27;20493;-80
2021/07/16 04:56:46;;;;;;;12.40;9.17;;;18.80;99.90;;;;;;5142072;27;20468;-81
2021/07/16 04:59:13;;;;;;;10.10;9.10;;;18.80;99.90;;;;;;5125144;28;20472;-80
2021/07/16 05:01:40;;;;;;;10.40;8.63;;;18.90;99.90;;;;;;5124393;28;20774;-81
2021/07/16 05:04:10;;;;;;;13.00;10.37;;;19.10;99.90;;;;;;5128652;28;20490;-79
2021/07/16 05:06:38;;;;;;;14.37;9.83;;;19.50;98.80;;;;;;5136186;27;20482;-80
2021/07/16 05:09:05;;;;;;;13.50;9.90;;;20.20;95.50;;;;;;5143497;27;20463;-79
2021/07/16 05:11:33;;;;;;;11.97;10.00;;;20.80;88.20;;;;;;5136444;27;20469;-79
2021/07/16 05:14:01;;;;;;;10.57;9.37;;;21.20;79.70;;;;;;5136899;27;20840;-79
2021/07/16 05:16:28;;;;;;;11.07;9.97;;;21.00;77.70;;;;;;5136170;27;20492;-79
2021/07/16 05:18:55;;;;;;;10.73;9.43;;;20.60;82.10;;;;;;5138517;27;20506;-81
2021/07/16 05:21:22;;;;;;;11.13;8.90;;;20.90;83.10;;;;;;5138398;27;20484;-78
2021/07/16 05:23:50;;;;;;;10.20;8.23;;;21.20;79.10;;;;;;5135551;27;20523;-79
2021/07/16 05:26:17;;;;;;;8.87;7.83;;;21.70;74.90;;;;;;5136933;27;20460;-79
2021/07/16 05:28:45;;;;;;;8.17;7.37;;;22.30;72.00;;;;;;5132042;27;20478;-79
2021/07/16 05:31:12;;;;;;;8.80;7.90;;;22.70;67.60;;;;;;5117510;28;20467;-79
2021/07/16 05:33:39;;;;;;;8.63;7.10;;;23.00;65.70;;;;;;5120545;28;20621;-80
2021/07/16 05:36:06;;;;;;;7.60;6.90;;;23.60;63.20;;;;;;5145811;27;20462;-79
2021/07/16 05:38:34;;;;;;;7.63;6.83;;;24.10;60.50;;;;;;5145544;27;20437;-79
2021/07/16 05:41:02;;;;;;;10.80;7.60;;;24.70;57.60;;;;;;5152875;27;20439;-79
2021/07/16 05:43:29;;;;;;;8.10;7.40;;;24.80;55.50;;;;;;5153454;27;20465;-79
2021/07/16 05:45:56;;;;;;;7.50;6.70;;;25.10;53.60;;;;;;5304403;22;20501;-80
2021/07/16 05:48:23;;;;;;;7.63;6.93;;;25.10;53.60;;;;;;5098942;28;20447;-79
2021/07/16 05:50:50;;;;;;;8.57;7.17;;;25.30;53.30;;;;;;5100090;28;20459;-81
2021/07/16 05:53:18;;;;;;;7.43;6.30;;;25.50;51.90;;;;;;5100650;28;20476;-80
2021/07/16 05:55:45;;;;;;;5.83;5.23;;;25.60;50.90;;;;;;5101610;28;20463;-82
2021/07/16 05:58:14;;;;;;;6.97;6.37;;;25.70;50.90;;;;;;5102001;28;20447;-79
2021/07/16 06:00:41;;;;;;;10.50;6.80;;;25.70;50.30;;;;;;5122185;22;20455;-83
2021/07/16 06:03:08;;;;;;;6.63;6.03;;;25.30;51.40;;;;;;5094674;28;20437;-79
2021/07/16 06:05:36;;;;;;;7.60;6.80;;;25.10;52.00;;;;;;5072422;28;20855;-82
2021/07/16 06:08:04;;;;;;;9.77;7.00;;;24.50;53.10;;;;;;5060977;28;20454;-82
2021/07/16 06:10:32;;;;;;;7.17;6.47;;;23.70;55.00;;;;;;5081874;28;20482;-82
2021/07/16 06:13:00;;;;;;;8.90;7.90;;;23.00;57.80;;;;;;5103346;28;20785;-82
2021/07/16 06:15:29;;;;;;;8.77;7.97;;;22.80;59.60;;;;;;5089864;28;20433;-83
2021/07/16 06:17:56;;;;;;;7.70;6.87;;;22.60;60.90;;;;;;5084250;28;20428;-82
2021/07/16 06:20:26;;;;;;;8.50;7.60;;;22.70;61.00;;;;;;5103758;28;20524;-82
2021/07/16 06:22:53;;;;;;;8.87;8.07;;;22.70;61.00;;;;;;5103938;28;20428;-82
2021/07/16 06:25:20;;;;;;;8.50;7.70;;;22.40;61.70;;;;;;5100657;28;20481;-80
2021/07/16 06:27:48;;;;;;;7.90;7.10;;;22.40;63.20;;;;;;5087846;28;20863;-80
2021/07/16 06:30:17;;;;;;;9.53;8.60;;;23.00;61.30;;;;;;5111332;28;20467;-80
2021/07/16 06:32:46;;;;;;;11.63;7.37;;;22.90;59.80;;;;;;5116223;28;20462;-80
2021/07/16 06:35:14;;;;;;;7.67;6.93;;;22.90;60.50;;;;;;5114400;28;20433;-80
2021/07/16 06:37:41;;;;;;;8.53;7.70;;;22.70;61.00;;;;;;5120115;28;20458;-81
2021/07/16 06:40:10;;;;;;;10.60;8.20;;;22.20;62.20;;;;;;5118160;28;20414;-80
2021/07/16 06:42:37;;;;;;;9.40;7.70;;;22.10;62.00;;;;;;5116188;28;20474;-80
2021/07/16 06:45:06;;;;;;;8.53;6.80;;;21.30;67.30;;;;;;5114549;28;20485;-81
2021/07/16 06:47:33;;;;;;;8.87;7.43;;;22.10;65.30;;;;;;5101426;28;20461;-82
2021/07/16 06:50:01;;;;;;;8.37;6.63;;;23.20;60.00;;;;;;5083716;28;20462;-80
2021/07/16 06:52:28;;;;;;;8.67;6.90;;;24.00;55.40;;;;;;5092890;28;20447;-81
2021/07/16 06:54:56;;;;;;;9.03;8.10;;;24.20;53.80;;;;;;5098795;28;20434;-80
2021/07/16 06:57:23;;;;;;;7.63;6.93;;;24.10;53.60;;;;;;5100260;28;20465;-81
2021/07/16 06:59:50;;;;;;;6.77;6.17;;;23.80;56.00;;;;;;5100035;28;20443;-80
2021/07/16 07:02:17;;;;;;;8.40;6.93;;;24.00;54.80;;;;;;5101069;28;20474;-80
2021/07/16 07:04:44;;;;;;;9.10;7.13;;;23.70;55.30;;;;;;5099561;28;20504;-80
2021/07/16 07:07:13;;;;;;;7.77;6.97;;;23.30;57.60;;;;;;5133082;27;20460;-80
2021/07/16 07:09:40;;;;;;;8.50;7.70;;;23.00;58.70;;;;;;5120662;28;20436;-79
2021/07/16 07:12:10;;;;;;;7.97;7.27;;;22.50;60.90;;;;;;5101825;28;20468;-81
2021/07/16 07:14:36;;;;;;;10.77;8.80;;;22.10;63.10;;;;;;5097601;28;20444;-82
2021/07/16 07:17:03;;;;;;;9.13;8.30;;;21.90;63.40;;;;;;5111336;28;20494;-82
2021/07/16 07:19:30;;;;;;;9.10;8.30;;;21.90;63.70;;;;;;5117999;28;20432;-82
2021/07/16 07:21:58;;;;;;;10.23;9.20;;;22.10;64.20;;;;;;5100410;28;20460;-76
2021/07/16 07:24:27;;;;;;;10.83;8.30;;;22.40;62.70;;;;;;5091030;28;20446;-77
2021/07/16 07:26:57;;;;;;;8.30;7.50;;;22.40;63.70;;;;;;5091192;28;20459;-78
2021/07/16 07:29:24;;;;;;;9.73;7.37;;;22.30;63.70;;;;;;5086256;28;20460;-76
2021/07/16 07:31:51;;;;;;;9.40;7.13;;;22.20;65.10;;;;;;5087932;28;20486;-77
2021/07/16 07:34:18;;;;;;;9.40;6.97;;;22.20;65.10;;;;;;5086645;28;20433;-80
2021/07/16 07:36:47;;;;;;;9.10;6.47;;;22.10;64.60;;;;;;5086717;28;20499;-78
2021/07/16 07:39:15;;;;;;;5.90;5.20;;;22.20;61.60;;;;;;5084929;28;20460;-80
2021/07/16 07:41:46;;;;;;;5.37;4.90;;;22.60;60.90;;;;;;5084424;28;20535;-79
2021/07/16 07:44:14;;;;;;;6.27;5.40;;;22.80;60.00;;;;;;5085216;28;20449;-81
2021/07/16 07:46:42;;;;;;;5.83;5.27;;;22.90;58.40;;;;;;5088951;28;20485;-81
2021/07/16 07:49:11;;;;;;;5.63;5.23;;;22.80;59.50;;;;;;5088237;28;20450;-81
2021/07/16 07:51:38;;;;;;;5.67;5.17;;;22.60;60.90;;;;;;5086841;28;20534;-80
2021/07/16 07:54:06;;;;;;;5.23;4.83;;;22.40;60.80;;;;;;5088215;28;20484;-81
2021/07/16 07:56:34;;;;;;;4.67;4.07;;;21.80;63.00;;;;;;5094976;28;20544;-81
2021/07/16 07:59:03;;;;;;;4.53;4.13;;;21.90;63.00;;;;;;5099232;28;20445;-80
2021/07/16 08:01:32;;;;;;;5.03;4.40;;;22.10;61.00;;;;;;5098849;28;20484;-81
2021/07/16 08:04:02;;;;;;;5.23;4.20;;;21.70;62.60;;;;;;5098549;28;20432;-81
2021/07/16 08:06:29;;;;;;;5.43;4.90;;;21.80;63.80;;;;;;5097227;28;20454;-81
2021/07/16 08:08:56;;;;;;;5.33;4.70;;;22.20;61.70;;;;;;5087230;28;20482;-81
2021/07/16 08:11:23;;;;;;;4.97;4.57;;;22.30;60.70;;;;;;5087715;28;20447;-81
2021/07/16 08:13:50;;;;;;;4.40;3.90;;;22.40;60.80;;;;;;5098085;28;20427;-81
2021/07/16 08:16:19;;;;;;;4.10;3.83;;;22.70;61.00;;;;;;5098839;28;20455;-81
2021/07/16 08:18:46;;;;;;;4.97;4.67;;;22.50;60.90;;;;;;5098150;28;20457;-81
2021/07/16 08:21:13;;;;;;;5.07;4.67;;;22.80;60.00;;;;;;5097764;28;20499;-82
2021/07/16 08:23:40;;;;;;;4.50;4.20;;;22.60;59.70;;;;;;5097768;28;20419;-81
2021/07/16 08:26:07;;;;;;;5.60;5.20;;;22.50;60.90;;;;;;5098096;28;20445;-81
2021/07/16 08:28:34;;;;;;;6.50;4.70;;;22.50;59.50;;;;;;5089527;28;20429;-81
2021/07/16 08:31:01;;;;;;;4.80;4.50;;;22.60;59.50;;;;;;5089092;28;20477;-80
2021/07/16 08:33:30;;;;;;;11.73;4.70;;;22.70;59.40;;;;;;5089468;28;20436;-81
2021/07/16 08:35:56;;;;;;;4.50;4.17;;;23.10;58.10;;;;;;5095786;28;20449;-81
2021/07/16 08:38:23;;;;;;;4.87;3.90;;;23.40;55.80;;;;;;5097919;28;20487;-82
2021/07/16 08:40:51;;;;;;;5.50;4.73;;;23.40;56.20;;;;;;5098395;28;20432;-82
2021/07/16 08:43:20;;;;;;;4.97;3.93;;;23.50;55.00;;;;;;5092673;28;20421;-82
2021/07/16 08:45:48;;;;;;;6.77;4.00;;;22.90;57.50;;;;;;5086104;28;20451;-81
2021/07/16 08:48:15;;;;;;;4.37;4.07;;;22.70;58.90;;;;;;5088026;28;20448;-81
2021/07/16 08:50:43;;;;;;;4.40;4.00;;;22.70;58.00;;;;;;5089779;28;20502;-82
2021/07/16 08:53:12;;;;;;;8.87;3.73;;;23.10;57.50;;;;;;5095262;28;20472;-81
2021/07/16 08:55:41;;;;;;;4.40;4.10;;;23.60;55.80;;;;;;5091398;28;20514;-80
2021/07/16 08:58:10;;;;;;;5.47;4.97;;;23.60;56.20;;;;;;5089856;28;20454;-80
2021/07/16 09:00:37;;;;;;;5.17;4.67;;;23.20;57.80;;;;;;5085291;28;20508;-80
2021/07/16 09:03:05;;;;;;;5.93;4.70;;;23.40;57.00;;;;;;5085044;28;20509;-80
2021/07/16 09:05:35;;;;;;;8.80;4.93;;;22.70;60.70;;;;;;5083513;28;20453;-81
2021/07/16 09:08:17;;;;;;;4.83;4.43;;;22.90;58.80;;;;;;5085700;28;20457;-80
2021/07/16 09:10:49;;;;;;;4.53;4.20;;;22.60;61.00;;;;;;5086299;28;20478;-80
2021/07/16 09:13:16;;;;;;;11.53;4.53;;;22.90;59.50;;;;;;5085309;28;20456;-81
2021/07/16 09:15:49;;;;;;;6.70;4.40;;;22.80;58.80;;;;;;5087432;28;20561;-81
2021/07/16 09:18:22;;;;;;;5.07;4.77;;;22.90;60.00;;;;;;5089796;28;20429;-81
2021/07/16 09:21:03;;;;;;;7.93;4.70;;;23.40;57.20;;;;;;5087633;28;20831;-80
2021/07/16 09:23:35;;;;;;;4.27;3.87;;;23.40;56.90;;;;;;5088992;28;20515;-81
2021/07/16 09:26:08;;;;;;;3.90;3.70;;;23.90;54.80;;;;;;5094899;28;20473;-80
2021/07/16 09:28:36;;;;;;;4.40;3.53;;;23.30;55.40;;;;;;5094769;28;20402;-82
2021/07/16 09:31:12;;;;;;;3.90;3.60;;;23.60;55.60;;;;;;5094688;28;20457;-81
2021/07/16 09:33:53;;;;;;;4.17;3.87;;;23.90;51.60;;;;;;5092980;28;20445;-81
2021/07/16 09:36:29;;;;;;;4.77;4.37;;;24.50;49.60;;;;;;5096239;28;20427;-80
2021/07/16 09:38:59;;;;;;;5.10;3.57;;;25.20;47.80;;;;;;5095983;28;20431;-81
2021/07/16 09:41:26;;;;;;;4.63;3.77;;;25.70;46.10;;;;;;5096708;28;20505;-81
2021/07/16 09:44:05;;;;;;;4.17;3.87;;;25.50;47.30;;;;;;5094711;28;20434;-80
2021/07/16 09:46:32;;;;;;;4.30;4.00;;;25.70;46.00;;;;;;5095820;28;20449;-80
2021/07/16 09:49:16;;;;;;;5.10;4.80;;;25.10;47.30;;;;;;5096690;28;20503;-80
2021/07/16 09:52:01;;;;;;;4.80;4.50;;;24.30;48.80;;;;;;5095724;28;20482;-81
2021/07/16 09:54:30;;;;;;;4.87;4.37;;;24.10;49.80;;;;;;5092194;28;20444;-80
2021/07/16 09:56:57;;;;;;;4.63;4.23;;;24.20;49.00;;;;;;5095579;28;20432;-80
2021/07/16 09:59:29;;;;;;;4.90;4.50;;;24.30;48.20;;;;;;5097361;28;20455;-79
2021/07/16 10:01:56;;;;;;;4.33;4.00;;;24.30;48.10;;;;;;5090247;28;20466;-81
2021/07/16 10:04:26;;;;;;;4.00;3.70;;;24.70;47.40;;;;;;5089817;28;20458;-81
2021/07/16 10:06:54;;;;;;;3.83;3.53;;;25.40;46.80;;;;;;5090716;28;20556;-82
2021/07/16 10:09:23;;;;;;;3.67;3.40;;;26.00;44.20;;;;;;5090715;28;20491;-81
2021/07/16 10:11:53;;;;;;;3.10;2.90;;;25.70;44.00;;;;;;5097095;28;20465;-81
2021/07/16 10:14:24;;;;;;;4.07;3.77;;;25.50;43.80;;;;;;5098319;28;20423;-81
2021/07/16 10:16:53;;;;;;;3.90;3.60;;;25.40;44.60;;;;;;5103252;28;20446;-81
2021/07/16 10:19:21;;;;;;;4.20;3.90;;;25.10;45.60;;;;;;5118836;28;20455;-81
2021/07/16 10:21:51;;;;;;;3.63;3.43;;;24.60;48.60;;;;;;5117344;28;20476;-82
2021/07/16 10:24:21;;;;;;;3.00;2.80;;;24.60;49.00;;;;;;5108655;28;20459;-81
2021/07/16 10:26:53;;;;;;;5.03;3.17;;;24.70;44.60;;;;;;5109116;28;20542;-80
2021/07/16 10:29:38;;;;;;;2.90;2.70;;;24.70;45.60;;;;;;5113206;28;20457;-81
2021/07/16 10:32:06;;;;;;;3.03;2.83;;;24.30;45.80;;;;;;5112447;28;20489;-81
2021/07/16 10:34:38;;;;;;;3.17;2.97;;;24.20;46.90;;;;;;5111157;28;20458;-81
2021/07/16 10:37:10;;;;;;;5.20;2.80;;;24.40;47.10;;;;;;5111542;28;20453;-81
2021/07/16 10:39:55;;;;;;;4.53;2.83;;;24.30;47.40;;;;;;5115138;28;20461;-80
2021/07/16 10:42:44;;;;;;;3.13;2.83;;;24.60;45.30;;;;;;5111692;28;20492;-79
2021/07/16 10:45:13;;;;;;;3.10;2.90;;;24.90;45.30;;;;;;5113982;28;20484;-81
2021/07/16 10:47:42;;;;;;;3.30;3.10;;;24.80;45.20;;;;;;5113925;28;20486;-81
2021/07/16 10:50:11;;;;;;;3.60;3.30;;;25.00;45.10;;;;;;5108435;28;20455;-81
2021/07/16 10:52:46;;;;;;;4.03;2.97;;;25.20;44.70;;;;;;5110353;28;20474;-81
2021/07/16 10:55:18;;;;;;;2.63;2.50;;;25.40;43.80;;;;;;5109849;28;20430;-81
2021/07/16 10:57:48;;;;;;;3.47;3.27;;;25.50;43.80;;;;;;5108444;28;20434;-81
2021/07/16 11:00:52;;;;;;;3.13;2.60;;;25.30;43.70;;;;;;5107541;28;20425;-81
2021/07/16 11:03:20;;;;;;;2.40;2.23;;;25.30;44.20;;;;;;5108215;28;20500;-81
2021/07/16 11:05:54;;;;;;;2.37;2.27;;;25.30;43.70;;;;;;5108865;28;20418;-80
2021/07/16 11:08:59;;;;;;;2.27;2.10;;;24.90;41.10;;;;;;5109146;28;20452;-80
2021/07/16 11:11:38;;;;;;;2.13;1.90;;;25.20;41.00;;;;;;5088545;28;20462;-81
2021/07/16 11:14:19;;;;;;;2.30;2.07;;;25.60;40.20;;;;;;5106662;28;20456;-81
2021/07/16 11:16:47;;;;;;;2.37;1.70;;;25.30;41.10;;;;;;5117770;28;20463;-80
2021/07/16 11:19:23;;;;;;;2.20;2.10;;;26.00;38.30;;;;;;5111048;28;20481;-82
2021/07/16 11:22:01;;;;;;;2.30;2.10;;;26.00;40.20;;;;;;5105303;28;20501;-81
2021/07/16 11:24:32;;;;;;;2.30;1.60;;;26.50;37.40;;;;;;5102946;28;20454;-79
2021/07/16 11:27:02;;;;;;;2.23;2.00;;;27.30;36.70;;;;;;5100667;28;21062;-79
2021/07/16 11:29:34;;;;;;;2.20;2.10;;;27.30;36.60;;;;;;5098367;28;20470;-79
2021/07/16 11:32:03;;;;;;;2.07;1.97;;;26.80;37.00;;;;;;5096926;28;20452;-79
2021/07/16 11:34:30;;;;;;;2.23;1.93;;;26.80;38.30;;;;;;5096624;28;20533;-78
2021/07/16 11:36:57;;;;;;;2.17;2.07;;;25.80;40.00;;;;;;5096459;28;20419;-78
2021/07/16 11:39:29;;;;;;;3.17;2.40;;;25.70;41.60;;;;;;5096276;28;20470;-78
2021/07/16 11:41:56;;;;;;;3.13;2.63;;;25.90;41.00;;;;;;5096630;28;20510;-79
2021/07/16 11:44:32;;;;;;;2.40;2.30;;;26.00;40.90;;;;;;5100103;28;20429;-80
2021/07/16 11:47:13;;;;;;;4.33;2.47;;;26.40;40.60;;;;;;5100190;28;20582;-79
2021/07/16 11:49:43;;;;;;;4.20;2.53;;;26.40;40.30;;;;;;5099924;28;20438;-79
2021/07/16 11:52:11;;;;;;;2.60;2.40;;;26.40;41.60;;;;;;5101690;28;20482;-78
2021/07/16 11:54:38;;;;;;;2.70;2.50;;;26.90;38.90;;;;;;5101249;28;20909;-79
2021/07/16 11:57:04;;;;;;;2.37;2.27;;;26.80;39.10;;;;;;5100811;28;20456;-79
2021/07/16 11:59:33;;;;;;;3.93;2.60;;;26.60;39.70;;;;;;5100775;28;20450;-79
2021/07/16 12:02:10;;;;;;;4.33;3.00;;;26.10;42.00;;;;;;5102673;22;20532;-79
2021/07/16 12:04:38;;;;;;;3.70;3.40;;;25.90;44.10;;;;;;5081364;28;20819;-81
2021/07/16 12:07:06;;;;;;;3.87;3.60;;;25.40;46.80;;;;;;5079429;28;20856;-78
2021/07/16 12:09:35;;;;;;;3.20;2.90;;;25.20;47.90;;;;;;5075232;28;20459;-79
2021/07/16 12:12:06;;;;;;;2.40;2.30;;;25.20;46.80;;;;;;5078839;28;20502;-79
2021/07/16 12:14:52;;;;;;;3.10;2.80;;;25.20;43.60;;;;;;5075619;28;20479;-79
2021/07/16 12:17:22;;;;;;;1.90;1.80;;;25.10;43.50;;;;;;5074366;28;20543;-78
2021/07/16 12:19:49;;;;;;;2.20;1.93;;;24.90;43.40;;;;;;5076547;28;20539;-78
2021/07/16 12:22:19;;;;;;;2.23;2.00;;;24.90;43.40;;;;;;5084780;28;20467;-80
2021/07/16 12:25:08;;;;;;;5.80;1.57;;;25.10;41.70;;;;;;5091187;28;20448;-82
2021/07/16 12:27:34;;;;;;;1.70;1.60;;;25.60;41.90;;;;;;5082298;28;20491;-81
2021/07/16 12:30:07;;;;;;;2.10;2.00;;;25.90;39.30;;;;;;5084661;28;20445;-79
2021/07/16 12:32:39;;;;;;;2.50;2.40;;;25.80;40.20;;;;;;5086455;28;20497;-82
2021/07/16 12:35:18;;;;;;;3.27;2.30;;;25.70;41.00;;;;;;5077673;28;20452;-78
2021/07/16 12:37:47;;;;;;;1.80;1.70;;;25.70;41.10;;;;;;5075456;28;20447;-79
2021/07/16 12:40:17;;;;;;;1.90;1.80;;;25.80;41.50;;;;;;5075003;28;20484;-77
2021/07/16 12:42:58;;;;;;;1.97;1.87;;;26.00;41.20;;;;;;5075360;28;20489;-79
2021/07/16 12:45:45;;;;;;;1.90;1.80;;;25.60;42.40;;;;;;5075436;28;20538;-81
2021/07/16 12:48:20;;;;;;;1.93;1.83;;;25.10;43.60;;;;;;5080937;28;20490;-80
2021/07/16 12:50:48;;;;;;;2.10;1.93;;;24.80;43.30;;;;;;5074057;28;20990;-78
2021/07/16 12:53:32;;;;;;;2.40;2.30;;;24.70;43.20;;;;;;5083899;28;20427;-81
2021/07/16 12:56:13;;;;;;;2.20;2.00;;;25.00;43.50;;;;;;5082992;28;20525;-80